sensor_id;sensor_type;location;lat;lon;timestamp;temperature;humidity
983;DHT22;480;48.124;11.578;2022-11-20T00:01:15;7.00;99.90
983;DHT22;480;48.124;11.578;2022-11-20T00:03:42;7.00;99.90
983;DHT22;480;48.124;11.578;2022-11-20T00:06:13;7.00;99.90
983;DHT22;480;48.124;11.578;2022-11-20T00:08:40;7.00;99.90
983;DHT22;480;48.124;11.578;2022-11-20T00:11:13;7.00;99.90
983;DHT22;480;48.124;11.578;2022-11-20T00:13:41;7.00;99.90
983;DHT22;480;48.124;11.578;2022-11-20T00:16:10;7.00;99.90
983;DHT22;480;48.124;11.578;2022-11-20T00:18:37;7.00;99.90
983;DHT22;480;48.124;11.578;2022-11-20T00:21:05;7.00;99.90
983;DHT22;480;48.124;11.578;2022-11-20T00:23:34;7.00;99.90
983;DHT22;480;48.124;11.578;2022-11-20T00:26:02;7.00;99.90
983;DHT22;480;48.124;11.578;2022-11-20T00:28:30;7.00;99.90
983;DHT22;480;48.124;11.578;2022-11-20T00:31:02;7.00;99.90
983;DHT22;480;48.124;11.578;2022-11-20T00:33:29;7.00;99.90
983;DHT22;480;48.124;11.578;2022-11-20T00:35:59;7.00;99.90
983;DHT22;480;48.124;11.578;2022-11-20T00:38:27;7.10;99.90
983;DHT22;480;48.124;11.578;2022-11-20T00:40:57;7.00;99.90
983;DHT22;480;48.124;11.578;2022-11-20T00:43:24;7.00;99.90
983;DHT22;480;48.124;11.578;2022-11-20T00:45:56;7.00;99.90
983;DHT22;480;48.124;11.578;2022-11-20T00:48:24;7.10;99.90
983;DHT22;480;48.124;11.578;2022-11-20T00:50:51;7.00;99.90
983;DHT22;480;48.124;11.578;2022-11-20T00:53:18;7.00;99.90
983;DHT22;480;48.124;11.578;2022-11-20T00:55:53;6.90;99.90
983;DHT22;480;48.124;11.578;2022-11-20T00:58:22;6.90;99.90
983;DHT22;480;48.124;11.578;2022-11-20T01:00:49;6.90;99.90
983;DHT22;480;48.124;11.578;2022-11-20T01:03:17;7.00;99.90
983;DHT22;480;48.124;11.578;2022-11-20T01:05:44;7.00;99.90
983;DHT22;480;48.124;11.578;2022-11-20T01:08:11;7.00;99.90
983;DHT22;480;48.124;11.578;2022-11-20T01:10:38;7.00;99.90
983;DHT22;480;48.124;11.578;2022-11-20T01:13:05;7.00;99.90
983;DHT22;480;48.124;11.578;2022-11-20T01:15:51;7.00;99.90
983;DHT22;480;48.124;11.578;2022-11-20T01:18:18;7.00;99.90
983;DHT22;480;48.124;11.578;2022-11-20T01:20:45;7.10;99.90
983;DHT22;480;48.124;11.578;2022-11-20T01:23:12;7.10;99.90
983;DHT22;480;48.124;11.578;2022-11-20T01:25:39;7.00;99.90
983;DHT22;480;48.124;11.578;2022-11-20T01:28:06;7.00;99.90
983;DHT22;480;48.124;11.578;2022-11-20T01:30:33;6.90;99.90
983;DHT22;480;48.124;11.578;2022-11-20T01:33:02;6.90;99.90
983;DHT22;480;48.124;11.578;2022-11-20T01:35:28;6.90;99.90
983;DHT22;480;48.124;11.578;2022-11-20T01:37:55;7.00;99.90
983;DHT22;480;48.124;11.578;2022-11-20T01:40:22;7.00;99.90
983;DHT22;480;48.124;11.578;2022-11-20T01:42:57;7.00;99.90
983;DHT22;480;48.124;11.578;2022-11-20T01:46:04;7.10;99.90
983;DHT22;480;48.124;11.578;2022-11-20T01:48:37;7.10;99.90
983;DHT22;480;48.124;11.578;2022-11-20T01:51:10;7.10;99.90
983;DHT22;480;48.124;11.578;2022-11-20T01:53:39;7.10;99.90
983;DHT22;480;48.124;11.578;2022-11-20T01:56:09;7.20;99.90
983;DHT22;480;48.124;11.578;2022-11-20T01:58:41;7.40;99.90
983;DHT22;480;48.124;11.578;2022-11-20T02:01:09;7.40;99.90
983;DHT22;480;48.124;11.578;2022-11-20T02:03:37;7.40;99.90
983;DHT22;480;48.124;11.578;2022-11-20T02:06:08;7.30;99.90
983;DHT22;480;48.124;11.578;2022-11-20T02:08:38;7.30;99.90
983;DHT22;480;48.124;11.578;2022-11-20T02:11:05;7.30;99.90
983;DHT22;480;48.124;11.578;2022-11-20T02:13:33;7.30;99.90
983;DHT22;480;48.124;11.578;2022-11-20T02:16:11;7.30;99.90
983;DHT22;480;48.124;11.578;2022-11-20T02:18:40;7.30;99.90
983;DHT22;480;48.124;11.578;2022-11-20T02:24:03;7.10;99.90
983;DHT22;480;48.124;11.578;2022-11-20T02:26:34;7.10;99.90
983;DHT22;480;48.124;11.578;2022-11-20T02:29:03;7.00;99.90
983;DHT22;480;48.124;11.578;2022-11-20T02:31:36;6.90;99.90
983;DHT22;480;48.124;11.578;2022-11-20T02:34:03;6.80;99.90
983;DHT22;480;48.124;11.578;2022-11-20T02:36:32;6.90;99.90
983;DHT22;480;48.124;11.578;2022-11-20T02:39:01;6.90;99.90
983;DHT22;480;48.124;11.578;2022-11-20T02:41:33;6.90;99.90
983;DHT22;480;48.124;11.578;2022-11-20T02:44:01;6.80;99.90
983;DHT22;480;48.124;11.578;2022-11-20T02:46:28;6.70;99.90
983;DHT22;480;48.124;11.578;2022-11-20T02:48:55;6.70;99.90
983;DHT22;480;48.124;11.578;2022-11-20T02:51:23;6.70;99.90
983;DHT22;480;48.124;11.578;2022-11-20T02:53:50;6.60;99.90
983;DHT22;480;48.124;11.578;2022-11-20T02:56:20;6.60;99.90
983;DHT22;480;48.124;11.578;2022-11-20T02:58:47;6.60;99.90
983;DHT22;480;48.124;11.578;2022-11-20T03:01:14;6.70;99.90
983;DHT22;480;48.124;11.578;2022-11-20T03:03:41;6.70;99.90
983;DHT22;480;48.124;11.578;2022-11-20T03:06:08;6.70;99.90
983;DHT22;480;48.124;11.578;2022-11-20T03:08:35;6.70;99.90
983;DHT22;480;48.124;11.578;2022-11-20T03:11:04;6.60;99.90
983;DHT22;480;48.124;11.578;2022-11-20T03:13:34;6.70;99.90
983;DHT22;480;48.124;11.578;2022-11-20T03:16:12;6.90;99.90
983;DHT22;480;48.124;11.578;2022-11-20T03:18:39;6.90;99.90
983;DHT22;480;48.124;11.578;2022-11-20T03:21:07;6.80;99.90
983;DHT22;480;48.124;11.578;2022-11-20T03:23:35;6.90;99.90
983;DHT22;480;48.124;11.578;2022-11-20T03:26:14;6.80;99.90
983;DHT22;480;48.124;11.578;2022-11-20T03:28:45;6.70;99.90
983;DHT22;480;48.124;11.578;2022-11-20T03:31:14;6.70;99.90
983;DHT22;480;48.124;11.578;2022-11-20T03:33:42;6.70;99.90
983;DHT22;480;48.124;11.578;2022-11-20T03:36:12;6.70;99.90
983;DHT22;480;48.124;11.578;2022-11-20T03:38:40;6.70;99.90
983;DHT22;480;48.124;11.578;2022-11-20T03:41:09;6.70;99.90
983;DHT22;480;48.124;11.578;2022-11-20T03:43:36;6.70;99.90
983;DHT22;480;48.124;11.578;2022-11-20T03:46:05;6.90;99.90
983;DHT22;480;48.124;11.578;2022-11-20T03:48:33;6.90;99.90
983;DHT22;480;48.124;11.578;2022-11-20T03:51:08;6.90;99.90
983;DHT22;480;48.124;11.578;2022-11-20T03:53:35;6.80;99.90
983;DHT22;480;48.124;11.578;2022-11-20T03:56:02;6.90;99.90
983;DHT22;480;48.124;11.578;2022-11-20T03:58:29;6.80;99.90
983;DHT22;480;48.124;11.578;2022-11-20T04:00:56;6.90;99.90
983;DHT22;480;48.124;11.578;2022-11-20T04:03:25;6.90;99.90
983;DHT22;480;48.124;11.578;2022-11-20T04:05:52;6.90;99.90
983;DHT22;480;48.124;11.578;2022-11-20T04:08:19;6.90;99.90
983;DHT22;480;48.124;11.578;2022-11-20T04:10:46;6.80;99.90
983;DHT22;480;48.124;11.578;2022-11-20T04:13:13;6.80;99.90
983;DHT22;480;48.124;11.578;2022-11-20T04:15:40;6.70;99.90
983;DHT22;480;48.124;11.578;2022-11-20T04:18:07;6.70;99.90
983;DHT22;480;48.124;11.578;2022-11-20T04:20:36;6.70;99.90
983;DHT22;480;48.124;11.578;2022-11-20T04:23:03;6.70;99.90
983;DHT22;480;48.124;11.578;2022-11-20T04:25:30;6.70;99.90
983;DHT22;480;48.124;11.578;2022-11-20T04:27:57;6.80;99.90
983;DHT22;480;48.124;11.578;2022-11-20T04:30:24;6.80;99.90
983;DHT22;480;48.124;11.578;2022-11-20T04:32:52;6.80;99.90
983;DHT22;480;48.124;11.578;2022-11-20T04:35:19;6.80;99.90
983;DHT22;480;48.124;11.578;2022-11-20T04:37:47;6.70;99.90
983;DHT22;480;48.124;11.578;2022-11-20T04:40:17;6.70;99.90
983;DHT22;480;48.124;11.578;2022-11-20T04:42:44;6.60;99.90
983;DHT22;480;48.124;11.578;2022-11-20T04:45:11;6.70;99.90
983;DHT22;480;48.124;11.578;2022-11-20T04:47:38;6.80;99.90
983;DHT22;480;48.124;11.578;2022-11-20T04:50:06;6.70;99.90
983;DHT22;480;48.124;11.578;2022-11-20T04:52:33;6.70;99.90
983;DHT22;480;48.124;11.578;2022-11-20T04:55:01;6.70;99.90
983;DHT22;480;48.124;11.578;2022-11-20T04:57:29;6.70;99.90
983;DHT22;480;48.124;11.578;2022-11-20T04:59:56;6.60;99.90
983;DHT22;480;48.124;11.578;2022-11-20T05:02:23;6.70;99.90
983;DHT22;480;48.124;11.578;2022-11-20T05:04:50;6.70;99.90
983;DHT22;480;48.124;11.578;2022-11-20T05:07:17;6.70;99.90
983;DHT22;480;48.124;11.578;2022-11-20T05:09:44;6.70;99.90
983;DHT22;480;48.124;11.578;2022-11-20T05:12:12;6.80;99.90
983;DHT22;480;48.124;11.578;2022-11-20T05:14:39;6.70;99.90
983;DHT22;480;48.124;11.578;2022-11-20T05:17:10;6.70;99.90
983;DHT22;480;48.124;11.578;2022-11-20T05:19:37;6.60;99.90
983;DHT22;480;48.124;11.578;2022-11-20T05:22:04;6.60;99.90
983;DHT22;480;48.124;11.578;2022-11-20T05:24:31;6.60;99.90
983;DHT22;480;48.124;11.578;2022-11-20T05:26:58;6.60;99.90
983;DHT22;480;48.124;11.578;2022-11-20T05:29:26;6.60;99.90
983;DHT22;480;48.124;11.578;2022-11-20T05:31:53;6.70;99.90
983;DHT22;480;48.124;11.578;2022-11-20T05:34:20;6.70;99.90
983;DHT22;480;48.124;11.578;2022-11-20T05:36:47;6.80;99.90
983;DHT22;480;48.124;11.578;2022-11-20T05:39:14;6.80;99.90
983;DHT22;480;48.124;11.578;2022-11-20T05:41:41;6.80;99.90
983;DHT22;480;48.124;11.578;2022-11-20T05:44:10;6.80;99.90
983;DHT22;480;48.124;11.578;2022-11-20T05:46:39;6.70;99.90
983;DHT22;480;48.124;11.578;2022-11-20T05:49:06;6.70;99.90
983;DHT22;480;48.124;11.578;2022-11-20T05:51:32;6.70;99.90
983;DHT22;480;48.124;11.578;2022-11-20T05:53:59;6.80;99.90
983;DHT22;480;48.124;11.578;2022-11-20T05:56:26;6.80;99.90
983;DHT22;480;48.124;11.578;2022-11-20T05:58:53;6.70;99.90
983;DHT22;480;48.124;11.578;2022-11-20T06:01:22;6.70;99.90
983;DHT22;480;48.124;11.578;2022-11-20T06:03:52;6.80;99.90
983;DHT22;480;48.124;11.578;2022-11-20T06:06:20;6.80;99.90
983;DHT22;480;48.124;11.578;2022-11-20T06:08:47;6.80;99.90
983;DHT22;480;48.124;11.578;2022-11-20T06:11:15;6.70;99.90
983;DHT22;480;48.124;11.578;2022-11-20T06:13:43;6.80;99.90
983;DHT22;480;48.124;11.578;2022-11-20T06:16:13;6.70;99.90
983;DHT22;480;48.124;11.578;2022-11-20T06:18:40;6.70;99.90
983;DHT22;480;48.124;11.578;2022-11-20T06:21:10;6.70;99.90
983;DHT22;480;48.124;11.578;2022-11-20T06:23:38;6.70;99.90
983;DHT22;480;48.124;11.578;2022-11-20T06:26:07;6.70;99.90
983;DHT22;480;48.124;11.578;2022-11-20T06:28:34;6.70;99.90
983;DHT22;480;48.124;11.578;2022-11-20T06:31:01;6.60;99.90
983;DHT22;480;48.124;11.578;2022-11-20T06:33:29;6.50;99.90
983;DHT22;480;48.124;11.578;2022-11-20T06:35:57;6.50;99.90
983;DHT22;480;48.124;11.578;2022-11-20T06:38:27;6.50;99.90
983;DHT22;480;48.124;11.578;2022-11-20T06:40:54;6.50;99.90
983;DHT22;480;48.124;11.578;2022-11-20T06:43:22;6.40;99.90
983;DHT22;480;48.124;11.578;2022-11-20T06:45:52;6.40;99.90
983;DHT22;480;48.124;11.578;2022-11-20T06:48:19;6.30;99.90
983;DHT22;480;48.124;11.578;2022-11-20T06:50:46;6.40;99.90
983;DHT22;480;48.124;11.578;2022-11-20T06:53:13;6.50;99.90
983;DHT22;480;48.124;11.578;2022-11-20T06:55:44;6.50;99.90
983;DHT22;480;48.124;11.578;2022-11-20T06:58:11;6.50;99.90
983;DHT22;480;48.124;11.578;2022-11-20T07:00:38;6.40;99.90
983;DHT22;480;48.124;11.578;2022-11-20T07:03:06;6.50;99.90
983;DHT22;480;48.124;11.578;2022-11-20T07:05:34;6.50;99.90
983;DHT22;480;48.124;11.578;2022-11-20T07:08:01;6.50;99.90
983;DHT22;480;48.124;11.578;2022-11-20T07:10:28;6.60;99.90
983;DHT22;480;48.124;11.578;2022-11-20T07:12:56;6.60;99.90
983;DHT22;480;48.124;11.578;2022-11-20T07:15:24;6.60;99.90
983;DHT22;480;48.124;11.578;2022-11-20T07:17:51;6.60;99.90
983;DHT22;480;48.124;11.578;2022-11-20T07:20:20;6.60;99.90
983;DHT22;480;48.124;11.578;2022-11-20T07:22:53;6.60;99.90
983;DHT22;480;48.124;11.578;2022-11-20T07:25:21;6.60;99.90
983;DHT22;480;48.124;11.578;2022-11-20T07:27:48;6.70;99.90
983;DHT22;480;48.124;11.578;2022-11-20T07:30:17;6.60;99.90
983;DHT22;480;48.124;11.578;2022-11-20T07:32:46;6.60;99.90
983;DHT22;480;48.124;11.578;2022-11-20T07:35:13;6.70;99.90
983;DHT22;480;48.124;11.578;2022-11-20T07:37:40;6.70;99.90
983;DHT22;480;48.124;11.578;2022-11-20T07:40:08;6.60;99.90
983;DHT22;480;48.124;11.578;2022-11-20T07:42:35;6.60;99.90
983;DHT22;480;48.124;11.578;2022-11-20T07:45:02;6.70;99.90
983;DHT22;480;48.124;11.578;2022-11-20T07:47:35;6.60;99.90
983;DHT22;480;48.124;11.578;2022-11-20T07:50:02;6.60;99.90
983;DHT22;480;48.124;11.578;2022-11-20T07:52:29;6.60;99.90
983;DHT22;480;48.124;11.578;2022-11-20T07:54:56;6.50;99.90
983;DHT22;480;48.124;11.578;2022-11-20T07:57:23;6.60;99.90
983;DHT22;480;48.124;11.578;2022-11-20T07:59:50;6.60;99.90
983;DHT22;480;48.124;11.578;2022-11-20T08:02:17;6.60;99.90
983;DHT22;480;48.124;11.578;2022-11-20T08:04:46;6.50;99.90
983;DHT22;480;48.124;11.578;2022-11-20T08:07:12;6.70;99.90
983;DHT22;480;48.124;11.578;2022-11-20T08:09:39;6.70;99.90
983;DHT22;480;48.124;11.578;2022-11-20T08:12:07;6.80;99.90
983;DHT22;480;48.124;11.578;2022-11-20T08:14:51;6.90;99.90
983;DHT22;480;48.124;11.578;2022-11-20T08:17:18;6.80;99.90
983;DHT22;480;48.124;11.578;2022-11-20T08:19:47;6.80;99.90
983;DHT22;480;48.124;11.578;2022-11-20T08:22:14;6.80;99.90
983;DHT22;480;48.124;11.578;2022-11-20T08:24:41;6.90;99.90
983;DHT22;480;48.124;11.578;2022-11-20T08:27:08;6.80;99.90
983;DHT22;480;48.124;11.578;2022-11-20T08:29:35;6.80;99.90
983;DHT22;480;48.124;11.578;2022-11-20T08:32:02;6.90;99.90
983;DHT22;480;48.124;11.578;2022-11-20T08:34:29;6.90;99.90
983;DHT22;480;48.124;11.578;2022-11-20T08:36:58;6.90;99.90
983;DHT22;480;48.124;11.578;2022-11-20T08:39:25;6.90;99.90
983;DHT22;480;48.124;11.578;2022-11-20T08:41:52;6.90;99.90
983;DHT22;480;48.124;11.578;2022-11-20T08:44:19;6.90;99.90
983;DHT22;480;48.124;11.578;2022-11-20T08:46:46;6.80;99.90
983;DHT22;480;48.124;11.578;2022-11-20T08:49:14;7.00;99.90
983;DHT22;480;48.124;11.578;2022-11-20T08:51:41;7.10;99.90
983;DHT22;480;48.124;11.578;2022-11-20T08:54:10;7.20;99.90
983;DHT22;480;48.124;11.578;2022-11-20T08:56:37;7.20;99.90
983;DHT22;480;48.124;11.578;2022-11-20T08:59:04;7.30;99.90
983;DHT22;480;48.124;11.578;2022-11-20T09:01:31;7.30;99.90
983;DHT22;480;48.124;11.578;2022-11-20T09:03:58;7.40;99.90
983;DHT22;480;48.124;11.578;2022-11-20T09:06:25;7.40;99.90
983;DHT22;480;48.124;11.578;2022-11-20T09:08:52;7.40;99.90
983;DHT22;480;48.124;11.578;2022-11-20T09:11:21;7.40;99.90
983;DHT22;480;48.124;11.578;2022-11-20T09:13:48;7.50;99.90
983;DHT22;480;48.124;11.578;2022-11-20T09:16:15;7.50;99.90
983;DHT22;480;48.124;11.578;2022-11-20T09:18:43;7.60;99.90
983;DHT22;480;48.124;11.578;2022-11-20T09:21:11;7.70;99.90
983;DHT22;480;48.124;11.578;2022-11-20T09:23:39;7.60;99.90
983;DHT22;480;48.124;11.578;2022-11-20T09:26:09;7.60;99.90
983;DHT22;480;48.124;11.578;2022-11-20T09:28:38;7.50;99.90
983;DHT22;480;48.124;11.578;2022-11-20T09:31:05;7.70;99.90
983;DHT22;480;48.124;11.578;2022-11-20T09:33:33;7.80;99.90
983;DHT22;480;48.124;11.578;2022-11-20T09:35:59;7.80;99.90
983;DHT22;480;48.124;11.578;2022-11-20T09:38:27;7.80;99.90
983;DHT22;480;48.124;11.578;2022-11-20T09:40:57;7.80;99.90
983;DHT22;480;48.124;11.578;2022-11-20T09:43:32;7.80;99.90
983;DHT22;480;48.124;11.578;2022-11-20T09:46:09;7.90;99.90
983;DHT22;480;48.124;11.578;2022-11-20T09:48:48;8.00;99.90
983;DHT22;480;48.124;11.578;2022-11-20T09:51:28;8.00;99.90
983;DHT22;480;48.124;11.578;2022-11-20T09:54:10;8.00;99.90
983;DHT22;480;48.124;11.578;2022-11-20T09:56:41;8.10;99.90
983;DHT22;480;48.124;11.578;2022-11-20T09:59:18;8.10;99.90
983;DHT22;480;48.124;11.578;2022-11-20T10:01:53;8.10;99.90
983;DHT22;480;48.124;11.578;2022-11-20T10:04:21;8.20;99.90
983;DHT22;480;48.124;11.578;2022-11-20T10:06:53;8.40;99.90
983;DHT22;480;48.124;11.578;2022-11-20T10:09:27;8.50;99.90
983;DHT22;480;48.124;11.578;2022-11-20T10:12:11;8.50;99.90
983;DHT22;480;48.124;11.578;2022-11-20T10:14:53;8.50;99.90
983;DHT22;480;48.124;11.578;2022-11-20T10:17:34;8.50;99.90
983;DHT22;480;48.124;11.578;2022-11-20T10:20:16;8.70;99.90
983;DHT22;480;48.124;11.578;2022-11-20T10:22:53;8.70;99.90
983;DHT22;480;48.124;11.578;2022-11-20T10:25:25;8.80;99.90
983;DHT22;480;48.124;11.578;2022-11-20T10:31:09;8.90;99.90
983;DHT22;480;48.124;11.578;2022-11-20T10:33:42;9.10;99.90
983;DHT22;480;48.124;11.578;2022-11-20T10:36:16;9.20;99.90
983;DHT22;480;48.124;11.578;2022-11-20T10:38:49;9.10;99.90
983;DHT22;480;48.124;11.578;2022-11-20T10:41:23;9.00;99.90
983;DHT22;480;48.124;11.578;2022-11-20T10:43:56;8.80;99.90
983;DHT22;480;48.124;11.578;2022-11-20T10:46:33;8.80;99.90
983;DHT22;480;48.124;11.578;2022-11-20T10:49:09;8.70;99.90
983;DHT22;480;48.124;11.578;2022-11-20T10:51:51;8.80;99.90
983;DHT22;480;48.124;11.578;2022-11-20T10:54:23;8.90;99.90
983;DHT22;480;48.124;11.578;2022-11-20T10:56:59;9.10;99.90
983;DHT22;480;48.124;11.578;2022-11-20T10:59:52;9.10;99.90
983;DHT22;480;48.124;11.578;2022-11-20T11:02:24;9.00;99.90
983;DHT22;480;48.124;11.578;2022-11-20T11:04:53;8.90;99.90
983;DHT22;480;48.124;11.578;2022-11-20T11:07:23;8.80;99.90
983;DHT22;480;48.124;11.578;2022-11-20T11:09:53;8.70;99.90
983;DHT22;480;48.124;11.578;2022-11-20T11:12:21;8.70;99.90
983;DHT22;480;48.124;11.578;2022-11-20T11:14:52;8.70;99.90
983;DHT22;480;48.124;11.578;2022-11-20T11:17:23;8.70;99.90
983;DHT22;480;48.124;11.578;2022-11-20T11:20:15;8.60;99.90
983;DHT22;480;48.124;11.578;2022-11-20T11:22:45;8.60;99.90
983;DHT22;480;48.124;11.578;2022-11-20T11:25:36;8.70;99.90
983;DHT22;480;48.124;11.578;2022-11-20T11:28:17;8.70;99.90
983;DHT22;480;48.124;11.578;2022-11-20T11:30:46;8.60;99.90
983;DHT22;480;48.124;11.578;2022-11-20T11:33:20;8.60;99.90
983;DHT22;480;48.124;11.578;2022-11-20T11:35:50;8.50;99.90
983;DHT22;480;48.124;11.578;2022-11-20T11:38:21;8.50;99.90
983;DHT22;480;48.124;11.578;2022-11-20T11:40:49;8.50;99.90
983;DHT22;480;48.124;11.578;2022-11-20T11:43:22;8.50;99.90
983;DHT22;480;48.124;11.578;2022-11-20T11:46:32;8.50;99.90
983;DHT22;480;48.124;11.578;2022-11-20T11:49:02;8.60;99.90
983;DHT22;480;48.124;11.578;2022-11-20T11:51:47;8.60;99.90
983;DHT22;480;48.124;11.578;2022-11-20T11:54:19;8.60;99.90
983;DHT22;480;48.124;11.578;2022-11-20T11:56:47;8.60;99.90
983;DHT22;480;48.124;11.578;2022-11-20T11:59:21;8.70;99.90
983;DHT22;480;48.124;11.578;2022-11-20T12:01:53;8.70;99.90
983;DHT22;480;48.124;11.578;2022-11-20T12:04:37;8.70;99.90
983;DHT22;480;48.124;11.578;2022-11-20T12:07:12;8.80;99.90
983;DHT22;480;48.124;11.578;2022-11-20T12:09:46;9.00;99.90
983;DHT22;480;48.124;11.578;2022-11-20T12:12:18;8.80;99.90
983;DHT22;480;48.124;11.578;2022-11-20T12:14:48;8.70;99.90
983;DHT22;480;48.124;11.578;2022-11-20T12:17:18;8.50;99.90
983;DHT22;480;48.124;11.578;2022-11-20T12:19:45;8.10;99.90
983;DHT22;480;48.124;11.578;2022-11-20T12:22:20;7.90;99.90
983;DHT22;480;48.124;11.578;2022-11-20T12:24:56;7.80;99.90
983;DHT22;480;48.124;11.578;2022-11-20T12:30:21;7.70;99.90
983;DHT22;480;48.124;11.578;2022-11-20T12:33:16;7.60;99.90
983;DHT22;480;48.124;11.578;2022-11-20T12:36:03;7.80;99.90
983;DHT22;480;48.124;11.578;2022-11-20T12:39:09;7.70;99.90
983;DHT22;480;48.124;11.578;2022-11-20T12:41:55;7.70;99.90
983;DHT22;480;48.124;11.578;2022-11-20T12:47:47;7.60;99.90
983;DHT22;480;48.124;11.578;2022-11-20T12:50:23;7.50;99.90
983;DHT22;480;48.124;11.578;2022-11-20T12:52:57;7.40;99.90
983;DHT22;480;48.124;11.578;2022-11-20T12:55:40;7.40;99.90
983;DHT22;480;48.124;11.578;2022-11-20T12:58:15;7.40;99.90
983;DHT22;480;48.124;11.578;2022-11-20T13:00:56;7.40;99.90
983;DHT22;480;48.124;11.578;2022-11-20T13:03:38;7.50;99.90
983;DHT22;480;48.124;11.578;2022-11-20T13:06:13;7.40;99.90
983;DHT22;480;48.124;11.578;2022-11-20T13:08:41;7.50;99.90
983;DHT22;480;48.124;11.578;2022-11-20T13:11:15;7.40;99.90
983;DHT22;480;48.124;11.578;2022-11-20T13:13:56;7.40;99.90
983;DHT22;480;48.124;11.578;2022-11-20T13:16:33;7.40;99.90
983;DHT22;480;48.124;11.578;2022-11-20T13:19:04;7.40;99.90
983;DHT22;480;48.124;11.578;2022-11-20T13:21:39;7.50;99.90
983;DHT22;480;48.124;11.578;2022-11-20T13:24:07;7.60;99.90
983;DHT22;480;48.124;11.578;2022-11-20T13:26:35;7.50;99.90
983;DHT22;480;48.124;11.578;2022-11-20T13:29:08;7.40;99.90
983;DHT22;480;48.124;11.578;2022-11-20T13:31:40;7.30;99.90
983;DHT22;480;48.124;11.578;2022-11-20T13:34:12;7.30;99.90
983;DHT22;480;48.124;11.578;2022-11-20T13:36:50;7.30;99.90
983;DHT22;480;48.124;11.578;2022-11-20T13:39:24;7.20;99.90
983;DHT22;480;48.124;11.578;2022-11-20T13:41:58;7.20;99.90
983;DHT22;480;48.124;11.578;2022-11-20T13:44:31;7.30;99.90
983;DHT22;480;48.124;11.578;2022-11-20T13:47:00;7.30;99.90
983;DHT22;480;48.124;11.578;2022-11-20T13:49:30;7.30;99.90
983;DHT22;480;48.124;11.578;2022-11-20T13:52:15;7.30;99.90
983;DHT22;480;48.124;11.578;2022-11-20T13:54:58;7.20;99.90
983;DHT22;480;48.124;11.578;2022-11-20T13:57:49;7.20;99.90
983;DHT22;480;48.124;11.578;2022-11-20T14:00:21;7.20;99.90
983;DHT22;480;48.124;11.578;2022-11-20T14:02:59;7.30;99.90
983;DHT22;480;48.124;11.578;2022-11-20T14:05:28;7.40;99.90
983;DHT22;480;48.124;11.578;2022-11-20T14:07:58;7.40;99.90
983;DHT22;480;48.124;11.578;2022-11-20T14:10:27;7.50;99.90
983;DHT22;480;48.124;11.578;2022-11-20T14:12:56;7.50;99.90
983;DHT22;480;48.124;11.578;2022-11-20T14:15:28;7.40;99.90
983;DHT22;480;48.124;11.578;2022-11-20T14:17:56;7.40;99.90
983;DHT22;480;48.124;11.578;2022-11-20T14:20:26;7.40;99.90
983;DHT22;480;48.124;11.578;2022-11-20T14:22:54;7.40;99.90
983;DHT22;480;48.124;11.578;2022-11-20T14:25:22;7.30;99.90
983;DHT22;480;48.124;11.578;2022-11-20T14:27:54;7.40;99.90
983;DHT22;480;48.124;11.578;2022-11-20T14:30:25;7.40;99.90
983;DHT22;480;48.124;11.578;2022-11-20T14:32:54;7.40;99.90
983;DHT22;480;48.124;11.578;2022-11-20T14:35:25;7.50;99.90
983;DHT22;480;48.124;11.578;2022-11-20T14:37:53;7.50;99.90
983;DHT22;480;48.124;11.578;2022-11-20T14:40:27;7.40;99.90
983;DHT22;480;48.124;11.578;2022-11-20T14:42:55;7.40;99.90
983;DHT22;480;48.124;11.578;2022-11-20T14:45:25;7.30;99.90
983;DHT22;480;48.124;11.578;2022-11-20T14:47:54;7.30;99.90
983;DHT22;480;48.124;11.578;2022-11-20T14:50:24;7.30;99.90
983;DHT22;480;48.124;11.578;2022-11-20T14:52:56;7.30;99.90
983;DHT22;480;48.124;11.578;2022-11-20T14:55:31;7.30;99.90
983;DHT22;480;48.124;11.578;2022-11-20T14:57:59;7.20;99.90
983;DHT22;480;48.124;11.578;2022-11-20T15:00:29;7.20;99.90
983;DHT22;480;48.124;11.578;2022-11-20T15:02:57;7.20;99.90
983;DHT22;480;48.124;11.578;2022-11-20T15:05:26;7.10;99.90
983;DHT22;480;48.124;11.578;2022-11-20T15:08:11;7.20;99.90
983;DHT22;480;48.124;11.578;2022-11-20T15:10:45;7.20;99.90
983;DHT22;480;48.124;11.578;2022-11-20T15:13:16;7.10;99.90
983;DHT22;480;48.124;11.578;2022-11-20T15:15:48;7.20;99.90
983;DHT22;480;48.124;11.578;2022-11-20T15:18:17;7.10;99.90
983;DHT22;480;48.124;11.578;2022-11-20T15:20:45;7.10;99.90
983;DHT22;480;48.124;11.578;2022-11-20T15:23:14;7.00;99.90
983;DHT22;480;48.124;11.578;2022-11-20T15:25:44;7.00;99.90
983;DHT22;480;48.124;11.578;2022-11-20T15:28:16;7.10;99.90
983;DHT22;480;48.124;11.578;2022-11-20T15:30:46;7.10;99.90
983;DHT22;480;48.124;11.578;2022-11-20T15:33:14;7.00;99.90
983;DHT22;480;48.124;11.578;2022-11-20T15:35:41;7.00;99.90
983;DHT22;480;48.124;11.578;2022-11-20T15:38:09;7.00;99.90
983;DHT22;480;48.124;11.578;2022-11-20T15:40:36;7.00;99.90
983;DHT22;480;48.124;11.578;2022-11-20T15:43:03;6.90;99.90
983;DHT22;480;48.124;11.578;2022-11-20T15:45:34;6.90;99.90
983;DHT22;480;48.124;11.578;2022-11-20T15:48:05;6.80;99.90
983;DHT22;480;48.124;11.578;2022-11-20T15:50:38;6.70;99.90
983;DHT22;480;48.124;11.578;2022-11-20T15:53:07;6.70;99.90
983;DHT22;480;48.124;11.578;2022-11-20T15:55:38;6.60;99.90
983;DHT22;480;48.124;11.578;2022-11-20T15:58:05;6.60;99.90
983;DHT22;480;48.124;11.578;2022-11-20T16:00:32;6.70;99.90
983;DHT22;480;48.124;11.578;2022-11-20T16:02:59;6.60;99.90
983;DHT22;480;48.124;11.578;2022-11-20T16:05:29;6.60;99.90
983;DHT22;480;48.124;11.578;2022-11-20T16:07:56;6.50;99.90
983;DHT22;480;48.124;11.578;2022-11-20T16:10:23;6.50;99.90
983;DHT22;480;48.124;11.578;2022-11-20T16:12:50;6.50;99.90
983;DHT22;480;48.124;11.578;2022-11-20T16:15:34;6.50;99.90
983;DHT22;480;48.124;11.578;2022-11-20T16:18:16;6.50;99.90
983;DHT22;480;48.124;11.578;2022-11-20T16:20:46;6.50;99.90
983;DHT22;480;48.124;11.578;2022-11-20T16:23:14;6.50;99.90
983;DHT22;480;48.124;11.578;2022-11-20T16:25:42;6.40;99.90
983;DHT22;480;48.124;11.578;2022-11-20T16:28:09;6.50;99.90
983;DHT22;480;48.124;11.578;2022-11-20T16:30:37;6.50;99.90
983;DHT22;480;48.124;11.578;2022-11-20T16:33:08;6.50;99.90
983;DHT22;480;48.124;11.578;2022-11-20T16:35:36;6.50;99.90
983;DHT22;480;48.124;11.578;2022-11-20T16:38:04;6.60;99.90
983;DHT22;480;48.124;11.578;2022-11-20T16:40:31;6.60;99.90
983;DHT22;480;48.124;11.578;2022-11-20T16:43:07;6.70;99.90
983;DHT22;480;48.124;11.578;2022-11-20T16:45:34;6.70;99.90
983;DHT22;480;48.124;11.578;2022-11-20T16:48:01;6.70;99.90
983;DHT22;480;48.124;11.578;2022-11-20T16:50:28;6.70;99.90
983;DHT22;480;48.124;11.578;2022-11-20T16:52:55;6.70;99.90
983;DHT22;480;48.124;11.578;2022-11-20T16:55:23;6.70;99.90
983;DHT22;480;48.124;11.578;2022-11-20T16:57:52;6.80;99.90
983;DHT22;480;48.124;11.578;2022-11-20T17:00:19;6.70;99.90
983;DHT22;480;48.124;11.578;2022-11-20T17:02:46;6.60;99.90
983;DHT22;480;48.124;11.578;2022-11-20T17:05:13;6.70;99.90
983;DHT22;480;48.124;11.578;2022-11-20T17:07:40;6.70;99.90